Terminal Aerodrome Forecast
Issued by NWS Brownsville, TX

Home | Current Version | Previous Version | Text Only | Print | Product List | Glossary On
Versions: 1 2 3 4 5 6 7 8 9 10 11 12 13 14 15 16 17 18 19 20 21 22 23 24 25
000
FTUS44 KBRO 241200 AAA
TAFMFE
TAF AMD
KMFE 241214Z 2412/2512 15014G20KT P6SM SCT015
      TEMPO 2412/2413 OVC012
     FM241500 18015G22KT P6SM SCT035
     FM242000 12011KT P6SM SKC
     FM250200 12010KT P6SM BKN020=

USA.gov is the U.S. government's official web portal to all federal, state and local government web resources and services.